sensor_id;sensor_type;location;lat;lon;timestamp;temperature;humidity
52189;DHT22;38162;45.926;13.608;2023-06-26T00:01:17;25.60;56.60
52189;DHT22;38162;45.926;13.608;2023-06-26T00:03:46;25.60;56.50
52189;DHT22;38162;45.926;13.608;2023-06-26T00:06:13;25.60;56.50
52189;DHT22;38162;45.926;13.608;2023-06-26T00:08:39;25.60;56.40
52189;DHT22;38162;45.926;13.608;2023-06-26T00:11:04;25.60;56.50
52189;DHT22;38162;45.926;13.608;2023-06-26T00:13:30;25.60;56.50
52189;DHT22;38162;45.926;13.608;2023-06-26T00:15:56;25.60;56.60
52189;DHT22;38162;45.926;13.608;2023-06-26T00:18:22;25.50;56.70
52189;DHT22;38162;45.926;13.608;2023-06-26T00:20:49;25.50;56.80
52189;DHT22;38162;45.926;13.608;2023-06-26T00:23:16;25.50;57.10
52189;DHT22;38162;45.926;13.608;2023-06-26T00:25:43;25.50;57.40
52189;DHT22;38162;45.926;13.608;2023-06-26T00:28:09;25.50;57.50
52189;DHT22;38162;45.926;13.608;2023-06-26T00:30:34;25.50;57.60
52189;DHT22;38162;45.926;13.608;2023-06-26T00:33:01;25.40;57.50
52189;DHT22;38162;45.926;13.608;2023-06-26T00:35:26;25.40;57.70
52189;DHT22;38162;45.926;13.608;2023-06-26T00:37:52;25.40;58.20
52189;DHT22;38162;45.926;13.608;2023-06-26T00:40:18;25.40;59.00
52189;DHT22;38162;45.926;13.608;2023-06-26T00:42:44;25.40;59.50
52189;DHT22;38162;45.926;13.608;2023-06-26T00:45:10;25.40;59.80
52189;DHT22;38162;45.926;13.608;2023-06-26T00:47:36;25.40;59.60
52189;DHT22;38162;45.926;13.608;2023-06-26T00:50:02;25.40;59.10
52189;DHT22;38162;45.926;13.608;2023-06-26T00:52:29;25.30;58.80
52189;DHT22;38162;45.926;13.608;2023-06-26T00:54:55;25.30;58.80
52189;DHT22;38162;45.926;13.608;2023-06-26T00:57:21;25.20;58.70
52189;DHT22;38162;45.926;13.608;2023-06-26T00:59:48;25.20;58.30
52189;DHT22;38162;45.926;13.608;2023-06-26T01:02:14;25.20;58.00
52189;DHT22;38162;45.926;13.608;2023-06-26T01:04:43;25.20;58.10
52189;DHT22;38162;45.926;13.608;2023-06-26T01:07:13;25.20;58.30
52189;DHT22;38162;45.926;13.608;2023-06-26T01:09:39;25.20;58.60
52189;DHT22;38162;45.926;13.608;2023-06-26T01:12:05;25.20;58.90
52189;DHT22;38162;45.926;13.608;2023-06-26T01:14:31;25.20;59.10
52189;DHT22;38162;45.926;13.608;2023-06-26T01:17:00;25.20;59.40
52189;DHT22;38162;45.926;13.608;2023-06-26T01:19:29;25.20;59.90
52189;DHT22;38162;45.926;13.608;2023-06-26T01:24:45;25.10;60.30
52189;DHT22;38162;45.926;13.608;2023-06-26T01:27:14;25.10;60.90
52189;DHT22;38162;45.926;13.608;2023-06-26T01:29:40;25.10;61.50
52189;DHT22;38162;45.926;13.608;2023-06-26T01:32:07;25.10;61.70
52189;DHT22;38162;45.926;13.608;2023-06-26T01:34:33;25.10;61.50
52189;DHT22;38162;45.926;13.608;2023-06-26T01:37:00;25.00;61.30
52189;DHT22;38162;45.926;13.608;2023-06-26T01:39:25;25.00;61.40
52189;DHT22;38162;45.926;13.608;2023-06-26T01:41:51;25.00;61.70
52189;DHT22;38162;45.926;13.608;2023-06-26T01:44:28;24.90;61.30
52189;DHT22;38162;45.926;13.608;2023-06-26T01:47:04;24.90;61.10
52189;DHT22;38162;45.926;13.608;2023-06-26T01:54:58;24.90;60.80
52189;DHT22;38162;45.926;13.608;2023-06-26T01:57:27;24.90;60.30
52189;DHT22;38162;45.926;13.608;2023-06-26T01:59:55;24.80;60.30
52189;DHT22;38162;45.926;13.608;2023-06-26T02:02:23;24.90;60.20
52189;DHT22;38162;45.926;13.608;2023-06-26T02:04:50;24.80;60.20
52189;DHT22;38162;45.926;13.608;2023-06-26T02:07:16;24.80;60.30
52189;DHT22;38162;45.926;13.608;2023-06-26T02:09:42;24.80;61.20
52189;DHT22;38162;45.926;13.608;2023-06-26T02:12:09;24.80;61.30
52189;DHT22;38162;45.926;13.608;2023-06-26T02:14:35;24.80;61.90
52189;DHT22;38162;45.926;13.608;2023-06-26T02:17:00;24.70;61.60
52189;DHT22;38162;45.926;13.608;2023-06-26T02:19:26;24.70;61.40
52189;DHT22;38162;45.926;13.608;2023-06-26T02:21:53;24.70;61.60
52189;DHT22;38162;45.926;13.608;2023-06-26T02:24:19;24.70;61.60
52189;DHT22;38162;45.926;13.608;2023-06-26T02:26:45;24.70;61.90
52189;DHT22;38162;45.926;13.608;2023-06-26T02:29:11;24.70;62.30
52189;DHT22;38162;45.926;13.608;2023-06-26T02:31:37;24.60;62.70
52189;DHT22;38162;45.926;13.608;2023-06-26T02:34:04;24.60;62.40
52189;DHT22;38162;45.926;13.608;2023-06-26T02:36:30;24.60;61.80
52189;DHT22;38162;45.926;13.608;2023-06-26T02:38:55;24.50;62.00
52189;DHT22;38162;45.926;13.608;2023-06-26T02:41:21;24.50;62.10
52189;DHT22;38162;45.926;13.608;2023-06-26T02:43:47;24.50;62.60
52189;DHT22;38162;45.926;13.608;2023-06-26T02:46:13;24.50;63.00
52189;DHT22;38162;45.926;13.608;2023-06-26T02:48:38;24.50;63.50
52189;DHT22;38162;45.926;13.608;2023-06-26T02:51:04;24.40;63.60
52189;DHT22;38162;45.926;13.608;2023-06-26T02:53:31;24.40;63.90
52189;DHT22;38162;45.926;13.608;2023-06-26T02:55:56;24.30;64.20
52189;DHT22;38162;45.926;13.608;2023-06-26T02:58:22;24.30;64.50
52189;DHT22;38162;45.926;13.608;2023-06-26T03:00:48;24.30;64.60
52189;DHT22;38162;45.926;13.608;2023-06-26T03:03:14;24.20;64.80
52189;DHT22;38162;45.926;13.608;2023-06-26T03:05:39;24.20;64.90
52189;DHT22;38162;45.926;13.608;2023-06-26T03:08:05;24.20;64.90
52189;DHT22;38162;45.926;13.608;2023-06-26T03:10:31;24.10;65.00
52189;DHT22;38162;45.926;13.608;2023-06-26T03:12:57;24.00;65.00
52189;DHT22;38162;45.926;13.608;2023-06-26T03:15:22;24.00;65.20
52189;DHT22;38162;45.926;13.608;2023-06-26T03:17:48;24.00;65.80
52189;DHT22;38162;45.926;13.608;2023-06-26T03:20:14;23.90;66.00
52189;DHT22;38162;45.926;13.608;2023-06-26T03:22:41;23.90;66.20
52189;DHT22;38162;45.926;13.608;2023-06-26T03:25:06;23.90;66.40
52189;DHT22;38162;45.926;13.608;2023-06-26T03:27:33;23.80;66.40
52189;DHT22;38162;45.926;13.608;2023-06-26T03:29:59;23.80;66.40
52189;DHT22;38162;45.926;13.608;2023-06-26T03:32:24;23.70;66.60
52189;DHT22;38162;45.926;13.608;2023-06-26T03:34:50;23.70;67.00
52189;DHT22;38162;45.926;13.608;2023-06-26T03:37:16;23.70;67.10
52189;DHT22;38162;45.926;13.608;2023-06-26T03:39:41;23.70;67.20
52189;DHT22;38162;45.926;13.608;2023-06-26T03:42:07;23.60;67.20
52189;DHT22;38162;45.926;13.608;2023-06-26T03:44:33;23.60;67.50
52189;DHT22;38162;45.926;13.608;2023-06-26T03:46:59;23.60;67.70
52189;DHT22;38162;45.926;13.608;2023-06-26T03:49:24;23.50;67.80
52189;DHT22;38162;45.926;13.608;2023-06-26T03:51:50;23.50;67.70
52189;DHT22;38162;45.926;13.608;2023-06-26T03:54:16;23.50;67.90
52189;DHT22;38162;45.926;13.608;2023-06-26T03:56:42;23.50;68.30
52189;DHT22;38162;45.926;13.608;2023-06-26T03:59:08;23.40;68.50
52189;DHT22;38162;45.926;13.608;2023-06-26T04:01:36;23.50;68.70
52189;DHT22;38162;45.926;13.608;2023-06-26T04:04:02;23.40;68.70
52189;DHT22;38162;45.926;13.608;2023-06-26T04:06:28;23.40;68.90
52189;DHT22;38162;45.926;13.608;2023-06-26T04:08:54;23.40;69.30
52189;DHT22;38162;45.926;13.608;2023-06-26T04:11:20;23.30;69.50
52189;DHT22;38162;45.926;13.608;2023-06-26T04:13:46;23.40;69.90
52189;DHT22;38162;45.926;13.608;2023-06-26T04:16:12;23.40;70.00
52189;DHT22;38162;45.926;13.608;2023-06-26T04:18:37;23.30;69.90
52189;DHT22;38162;45.926;13.608;2023-06-26T04:21:11;23.30;69.80
52189;DHT22;38162;45.926;13.608;2023-06-26T04:23:37;23.40;70.10
52189;DHT22;38162;45.926;13.608;2023-06-26T04:26:04;23.30;70.10
52189;DHT22;38162;45.926;13.608;2023-06-26T04:28:34;23.40;70.10
52189;DHT22;38162;45.926;13.608;2023-06-26T04:31:01;23.40;70.50
52189;DHT22;38162;45.926;13.608;2023-06-26T04:33:27;23.40;70.40
52189;DHT22;38162;45.926;13.608;2023-06-26T04:35:53;23.30;70.30
52189;DHT22;38162;45.926;13.608;2023-06-26T04:38:20;23.40;70.40
52189;DHT22;38162;45.926;13.608;2023-06-26T04:40:47;23.40;70.60
52189;DHT22;38162;45.926;13.608;2023-06-26T04:43:13;23.40;70.70
52189;DHT22;38162;45.926;13.608;2023-06-26T04:45:39;23.40;70.60
52189;DHT22;38162;45.926;13.608;2023-06-26T04:48:04;23.40;70.20
52189;DHT22;38162;45.926;13.608;2023-06-26T04:50:31;23.40;70.30
52189;DHT22;38162;45.926;13.608;2023-06-26T04:52:57;23.40;70.00
52189;DHT22;38162;45.926;13.608;2023-06-26T04:55:24;23.40;70.20
52189;DHT22;38162;45.926;13.608;2023-06-26T04:57:50;23.40;70.80
52189;DHT22;38162;45.926;13.608;2023-06-26T05:00:16;23.40;70.20
52189;DHT22;38162;45.926;13.608;2023-06-26T05:02:42;23.50;70.30
52189;DHT22;38162;45.926;13.608;2023-06-26T05:05:08;23.50;70.80
52189;DHT22;38162;45.926;13.608;2023-06-26T05:07:34;23.50;70.60
52189;DHT22;38162;45.926;13.608;2023-06-26T05:10:00;23.50;69.70
52189;DHT22;38162;45.926;13.608;2023-06-26T05:12:25;23.60;69.20
52189;DHT22;38162;45.926;13.608;2023-06-26T05:14:51;23.60;68.90
52189;DHT22;38162;45.926;13.608;2023-06-26T05:17:17;23.60;68.80
52189;DHT22;38162;45.926;13.608;2023-06-26T05:19:43;23.60;69.00
52189;DHT22;38162;45.926;13.608;2023-06-26T05:22:09;23.60;69.00
52189;DHT22;38162;45.926;13.608;2023-06-26T05:24:38;23.70;69.10
52189;DHT22;38162;45.926;13.608;2023-06-26T05:27:05;23.70;68.90
52189;DHT22;38162;45.926;13.608;2023-06-26T05:29:32;23.70;68.90
52189;DHT22;38162;45.926;13.608;2023-06-26T05:31:59;23.80;69.00
52189;DHT22;38162;45.926;13.608;2023-06-26T05:34:25;23.80;68.80
52189;DHT22;38162;45.926;13.608;2023-06-26T05:36:57;23.80;68.70
52189;DHT22;38162;45.926;13.608;2023-06-26T05:39:23;23.90;68.60
52189;DHT22;38162;45.926;13.608;2023-06-26T05:41:50;23.90;69.30
52189;DHT22;38162;45.926;13.608;2023-06-26T05:44:16;23.90;68.30
52189;DHT22;38162;45.926;13.608;2023-06-26T05:46:42;23.90;68.00
52189;DHT22;38162;45.926;13.608;2023-06-26T05:49:08;23.90;67.80
52189;DHT22;38162;45.926;13.608;2023-06-26T05:51:34;24.00;67.70
52189;DHT22;38162;45.926;13.608;2023-06-26T05:54:00;24.00;67.70
52189;DHT22;38162;45.926;13.608;2023-06-26T05:56:26;24.00;67.30
52189;DHT22;38162;45.926;13.608;2023-06-26T05:58:52;24.00;67.00
52189;DHT22;38162;45.926;13.608;2023-06-26T06:01:18;24.10;66.80
52189;DHT22;38162;45.926;13.608;2023-06-26T06:03:45;24.10;66.90
52189;DHT22;38162;45.926;13.608;2023-06-26T06:06:11;24.10;66.70
52189;DHT22;38162;45.926;13.608;2023-06-26T06:08:37;24.20;66.50
52189;DHT22;38162;45.926;13.608;2023-06-26T06:11:03;24.20;66.50
52189;DHT22;38162;45.926;13.608;2023-06-26T06:13:29;24.20;66.10
52189;DHT22;38162;45.926;13.608;2023-06-26T06:15:55;24.20;65.50
52189;DHT22;38162;45.926;13.608;2023-06-26T06:18:21;24.30;65.40
52189;DHT22;38162;45.926;13.608;2023-06-26T06:20:47;24.30;65.30
52189;DHT22;38162;45.926;13.608;2023-06-26T06:23:13;24.30;65.00
52189;DHT22;38162;45.926;13.608;2023-06-26T06:25:39;24.40;65.20
52189;DHT22;38162;45.926;13.608;2023-06-26T06:28:05;24.50;65.40
52189;DHT22;38162;45.926;13.608;2023-06-26T06:30:31;24.40;65.40
52189;DHT22;38162;45.926;13.608;2023-06-26T06:32:57;24.50;65.30
52189;DHT22;38162;45.926;13.608;2023-06-26T06:35:23;24.50;65.00
52189;DHT22;38162;45.926;13.608;2023-06-26T06:37:49;24.60;65.00
52189;DHT22;38162;45.926;13.608;2023-06-26T06:40:16;24.60;64.70
52189;DHT22;38162;45.926;13.608;2023-06-26T06:42:42;24.70;64.60
52189;DHT22;38162;45.926;13.608;2023-06-26T06:45:08;24.70;64.10
52189;DHT22;38162;45.926;13.608;2023-06-26T06:47:34;24.70;63.80
52189;DHT22;38162;45.926;13.608;2023-06-26T06:50:01;24.70;63.90
52189;DHT22;38162;45.926;13.608;2023-06-26T06:52:37;24.80;64.40
52189;DHT22;38162;45.926;13.608;2023-06-26T06:55:04;24.90;64.70
52189;DHT22;38162;45.926;13.608;2023-06-26T06:57:34;24.90;64.50
52189;DHT22;38162;45.926;13.608;2023-06-26T07:00:07;24.90;64.00
52189;DHT22;38162;45.926;13.608;2023-06-26T07:02:38;25.00;64.00
52189;DHT22;38162;45.926;13.608;2023-06-26T07:05:05;25.00;64.20
52189;DHT22;38162;45.926;13.608;2023-06-26T07:07:32;25.00;64.40
52189;DHT22;38162;45.926;13.608;2023-06-26T07:10:10;25.10;64.40
52189;DHT22;38162;45.926;13.608;2023-06-26T07:12:36;25.20;64.20
52189;DHT22;38162;45.926;13.608;2023-06-26T07:15:03;25.20;64.80
52189;DHT22;38162;45.926;13.608;2023-06-26T07:17:33;25.20;64.90
52189;DHT22;38162;45.926;13.608;2023-06-26T07:19:59;25.20;64.40
52189;DHT22;38162;45.926;13.608;2023-06-26T07:22:26;25.30;64.50
52189;DHT22;38162;45.926;13.608;2023-06-26T07:24:52;25.40;63.50
52189;DHT22;38162;45.926;13.608;2023-06-26T07:27:19;25.40;63.20
52189;DHT22;38162;45.926;13.608;2023-06-26T07:29:45;25.40;62.90
52189;DHT22;38162;45.926;13.608;2023-06-26T07:32:11;25.40;62.60
52189;DHT22;38162;45.926;13.608;2023-06-26T07:34:37;25.50;62.70
52189;DHT22;38162;45.926;13.608;2023-06-26T07:37:03;25.50;62.60
52189;DHT22;38162;45.926;13.608;2023-06-26T07:39:29;25.60;62.80
52189;DHT22;38162;45.926;13.608;2023-06-26T07:41:55;25.70;63.00
52189;DHT22;38162;45.926;13.608;2023-06-26T07:44:21;25.70;63.50
52189;DHT22;38162;45.926;13.608;2023-06-26T07:46:47;25.80;62.60
52189;DHT22;38162;45.926;13.608;2023-06-26T07:49:13;25.80;61.80
52189;DHT22;38162;45.926;13.608;2023-06-26T07:51:39;25.90;61.60
52189;DHT22;38162;45.926;13.608;2023-06-26T07:54:04;25.90;61.40
52189;DHT22;38162;45.926;13.608;2023-06-26T07:56:30;26.00;61.70
52189;DHT22;38162;45.926;13.608;2023-06-26T07:58:56;26.00;61.00
52189;DHT22;38162;45.926;13.608;2023-06-26T08:01:24;26.00;61.00
52189;DHT22;38162;45.926;13.608;2023-06-26T08:03:49;26.10;60.80
52189;DHT22;38162;45.926;13.608;2023-06-26T08:06:15;26.10;60.70
52189;DHT22;38162;45.926;13.608;2023-06-26T08:08:41;26.20;60.50
52189;DHT22;38162;45.926;13.608;2023-06-26T08:11:07;26.20;60.40
52189;DHT22;38162;45.926;13.608;2023-06-26T08:13:33;26.20;60.60
52189;DHT22;38162;45.926;13.608;2023-06-26T08:15:58;26.30;60.90
52189;DHT22;38162;45.926;13.608;2023-06-26T08:18:24;26.30;60.10
52189;DHT22;38162;45.926;13.608;2023-06-26T08:20:50;26.40;60.00
52189;DHT22;38162;45.926;13.608;2023-06-26T08:23:16;26.40;60.10
52189;DHT22;38162;45.926;13.608;2023-06-26T08:25:41;26.40;60.20
52189;DHT22;38162;45.926;13.608;2023-06-26T08:28:07;26.50;60.30
52189;DHT22;38162;45.926;13.608;2023-06-26T08:30:33;26.50;59.80
52189;DHT22;38162;45.926;13.608;2023-06-26T08:32:59;26.60;59.30
52189;DHT22;38162;45.926;13.608;2023-06-26T08:35:24;26.60;58.90
52189;DHT22;38162;45.926;13.608;2023-06-26T08:37:50;26.70;58.30
52189;DHT22;38162;45.926;13.608;2023-06-26T08:40:17;26.70;58.20
52189;DHT22;38162;45.926;13.608;2023-06-26T08:42:44;26.80;58.30
52189;DHT22;38162;45.926;13.608;2023-06-26T08:45:10;26.90;57.90
52189;DHT22;38162;45.926;13.608;2023-06-26T08:47:37;26.90;58.00
52189;DHT22;38162;45.926;13.608;2023-06-26T08:52:48;27.00;58.00
52189;DHT22;38162;45.926;13.608;2023-06-26T08:55:16;27.10;58.60
52189;DHT22;38162;45.926;13.608;2023-06-26T08:57:42;27.10;58.20
52189;DHT22;38162;45.926;13.608;2023-06-26T09:00:08;27.20;58.30
52189;DHT22;38162;45.926;13.608;2023-06-26T09:02:38;27.20;57.70
52189;DHT22;38162;45.926;13.608;2023-06-26T09:05:04;27.20;56.50
52189;DHT22;38162;45.926;13.608;2023-06-26T09:07:30;27.30;55.80
52189;DHT22;38162;45.926;13.608;2023-06-26T09:09:56;27.40;56.40
52189;DHT22;38162;45.926;13.608;2023-06-26T09:12:22;27.40;56.40
52189;DHT22;38162;45.926;13.608;2023-06-26T09:14:48;27.40;56.40
52189;DHT22;38162;45.926;13.608;2023-06-26T09:17:14;27.50;56.90
52189;DHT22;38162;45.926;13.608;2023-06-26T09:19:40;27.50;57.10
52189;DHT22;38162;45.926;13.608;2023-06-26T09:22:11;27.60;56.70
52189;DHT22;38162;45.926;13.608;2023-06-26T09:24:41;27.60;55.70
52189;DHT22;38162;45.926;13.608;2023-06-26T09:27:07;27.60;55.80
52189;DHT22;38162;45.926;13.608;2023-06-26T09:29:33;27.70;57.00
52189;DHT22;38162;45.926;13.608;2023-06-26T09:31:59;27.80;57.40
52189;DHT22;38162;45.926;13.608;2023-06-26T09:34:32;27.80;56.10
52189;DHT22;38162;45.926;13.608;2023-06-26T09:36:59;27.90;56.10
52189;DHT22;38162;45.926;13.608;2023-06-26T09:39:30;28.00;56.50
52189;DHT22;38162;45.926;13.608;2023-06-26T09:41:56;28.00;56.50
52189;DHT22;38162;45.926;13.608;2023-06-26T09:44:23;28.10;56.30
52189;DHT22;38162;45.926;13.608;2023-06-26T09:46:49;28.10;56.80
52189;DHT22;38162;45.926;13.608;2023-06-26T09:49:15;28.20;56.50
52189;DHT22;38162;45.926;13.608;2023-06-26T09:51:42;28.20;56.60
52189;DHT22;38162;45.926;13.608;2023-06-26T09:54:08;28.30;56.80
52189;DHT22;38162;45.926;13.608;2023-06-26T09:56:35;28.30;56.70
52189;DHT22;38162;45.926;13.608;2023-06-26T09:59:03;28.40;56.60
52189;DHT22;38162;45.926;13.608;2023-06-26T10:01:29;28.50;56.50
52189;DHT22;38162;45.926;13.608;2023-06-26T10:03:56;28.50;56.40
52189;DHT22;38162;45.926;13.608;2023-06-26T10:06:35;28.50;56.80
52189;DHT22;38162;45.926;13.608;2023-06-26T10:09:03;28.60;57.40
52189;DHT22;38162;45.926;13.608;2023-06-26T10:11:37;28.70;56.70
52189;DHT22;38162;45.926;13.608;2023-06-26T10:14:07;28.70;55.80
52189;DHT22;38162;45.926;13.608;2023-06-26T10:16:35;28.70;55.70
52189;DHT22;38162;45.926;13.608;2023-06-26T10:19:06;28.80;55.40
52189;DHT22;38162;45.926;13.608;2023-06-26T10:21:34;28.80;55.70
52189;DHT22;38162;45.926;13.608;2023-06-26T10:24:01;28.90;56.00
52189;DHT22;38162;45.926;13.608;2023-06-26T10:26:28;28.90;55.40
52189;DHT22;38162;45.926;13.608;2023-06-26T10:28:56;28.90;55.20
52189;DHT22;38162;45.926;13.608;2023-06-26T10:31:25;29.00;56.20
52189;DHT22;38162;45.926;13.608;2023-06-26T10:33:52;29.00;55.80
52189;DHT22;38162;45.926;13.608;2023-06-26T10:36:31;29.00;55.50
52189;DHT22;38162;45.926;13.608;2023-06-26T10:38:59;29.10;55.40
52189;DHT22;38162;45.926;13.608;2023-06-26T10:41:27;29.10;54.80
52189;DHT22;38162;45.926;13.608;2023-06-26T10:46:25;29.20;54.60
52189;DHT22;38162;45.926;13.608;2023-06-26T10:48:59;29.20;54.40
52189;DHT22;38162;45.926;13.608;2023-06-26T10:51:29;29.20;54.40
52189;DHT22;38162;45.926;13.608;2023-06-26T10:53:58;29.30;55.00
52189;DHT22;38162;45.926;13.608;2023-06-26T10:56:45;29.30;54.60
52189;DHT22;38162;45.926;13.608;2023-06-26T10:59:21;29.30;54.50
52189;DHT22;38162;45.926;13.608;2023-06-26T11:02:01;29.40;54.40
52189;DHT22;38162;45.926;13.608;2023-06-26T11:04:47;29.40;53.90
52189;DHT22;38162;45.926;13.608;2023-06-26T11:07:25;29.40;54.30
52189;DHT22;38162;45.926;13.608;2023-06-26T11:12:41;29.50;54.20
52189;DHT22;38162;45.926;13.608;2023-06-26T11:15:26;29.50;54.00
52189;DHT22;38162;45.926;13.608;2023-06-26T11:17:53;29.50;54.10
52189;DHT22;38162;45.926;13.608;2023-06-26T11:20:20;29.60;54.40
52189;DHT22;38162;45.926;13.608;2023-06-26T11:22:46;29.70;54.70
52189;DHT22;38162;45.926;13.608;2023-06-26T11:25:12;29.70;54.40
52189;DHT22;38162;45.926;13.608;2023-06-26T11:30:09;29.80;55.00
52189;DHT22;38162;45.926;13.608;2023-06-26T11:32:39;29.90;54.70
52189;DHT22;38162;45.926;13.608;2023-06-26T11:35:05;29.90;54.60
52189;DHT22;38162;45.926;13.608;2023-06-26T11:37:31;29.90;54.90
52189;DHT22;38162;45.926;13.608;2023-06-26T11:39:57;29.90;54.70
52189;DHT22;38162;45.926;13.608;2023-06-26T11:42:23;30.00;54.90
52189;DHT22;38162;45.926;13.608;2023-06-26T11:44:51;30.00;54.40
52189;DHT22;38162;45.926;13.608;2023-06-26T11:47:19;30.10;54.70
52189;DHT22;38162;45.926;13.608;2023-06-26T11:49:49;30.10;54.70
52189;DHT22;38162;45.926;13.608;2023-06-26T11:52:15;30.10;54.90
52189;DHT22;38162;45.926;13.608;2023-06-26T11:54:42;30.10;54.50
52189;DHT22;38162;45.926;13.608;2023-06-26T11:57:08;30.20;54.60
52189;DHT22;38162;45.926;13.608;2023-06-26T11:59:35;30.20;54.10
52189;DHT22;38162;45.926;13.608;2023-06-26T12:02:08;30.20;55.20
52189;DHT22;38162;45.926;13.608;2023-06-26T12:04:37;30.20;55.00
52189;DHT22;38162;45.926;13.608;2023-06-26T12:07:03;30.30;54.90
52189;DHT22;38162;45.926;13.608;2023-06-26T12:09:31;30.30;54.70
52189;DHT22;38162;45.926;13.608;2023-06-26T12:11:59;30.30;53.90
52189;DHT22;38162;45.926;13.608;2023-06-26T12:14:26;30.40;54.00
52189;DHT22;38162;45.926;13.608;2023-06-26T12:16:54;30.40;53.70
52189;DHT22;38162;45.926;13.608;2023-06-26T12:19:25;30.40;53.60
52189;DHT22;38162;45.926;13.608;2023-06-26T12:21:53;30.40;54.10
52189;DHT22;38162;45.926;13.608;2023-06-26T12:24:22;30.40;54.20
52189;DHT22;38162;45.926;13.608;2023-06-26T12:26:55;30.40;54.50
52189;DHT22;38162;45.926;13.608;2023-06-26T12:29:28;30.40;54.60
52189;DHT22;38162;45.926;13.608;2023-06-26T12:31:54;30.40;55.10
52189;DHT22;38162;45.926;13.608;2023-06-26T12:34:25;30.50;55.60
52189;DHT22;38162;45.926;13.608;2023-06-26T12:36:51;30.40;54.70
52189;DHT22;38162;45.926;13.608;2023-06-26T12:39:18;30.50;54.40
52189;DHT22;38162;45.926;13.608;2023-06-26T12:41:57;30.50;54.00
52189;DHT22;38162;45.926;13.608;2023-06-26T12:44:29;30.50;54.20
52189;DHT22;38162;45.926;13.608;2023-06-26T12:46:57;30.50;54.00
52189;DHT22;38162;45.926;13.608;2023-06-26T12:49:50;30.50;53.60
52189;DHT22;38162;45.926;13.608;2023-06-26T12:52:17;30.50;54.30
52189;DHT22;38162;45.926;13.608;2023-06-26T12:54:45;30.60;54.30
52189;DHT22;38162;45.926;13.608;2023-06-26T12:57:12;30.60;54.20
52189;DHT22;38162;45.926;13.608;2023-06-26T12:59:41;30.60;53.60
52189;DHT22;38162;45.926;13.608;2023-06-26T13:02:07;30.70;54.00
52189;DHT22;38162;45.926;13.608;2023-06-26T13:04:33;30.70;54.40
52189;DHT22;38162;45.926;13.608;2023-06-26T13:06:59;30.70;54.30
52189;DHT22;38162;45.926;13.608;2023-06-26T13:09:25;30.70;53.30
52189;DHT22;38162;45.926;13.608;2023-06-26T13:11:52;30.80;53.80
52189;DHT22;38162;45.926;13.608;2023-06-26T13:14:18;30.80;53.50
52189;DHT22;38162;45.926;13.608;2023-06-26T13:16:44;30.80;53.40
52189;DHT22;38162;45.926;13.608;2023-06-26T13:19:10;30.90;52.80
52189;DHT22;38162;45.926;13.608;2023-06-26T13:21:36;30.90;53.30
52189;DHT22;38162;45.926;13.608;2023-06-26T13:24:03;30.90;53.70
52189;DHT22;38162;45.926;13.608;2023-06-26T13:26:29;30.90;54.10
52189;DHT22;38162;45.926;13.608;2023-06-26T13:28:55;31.00;53.80
52189;DHT22;38162;45.926;13.608;2023-06-26T13:31:21;30.90;52.90
52189;DHT22;38162;45.926;13.608;2023-06-26T13:33:47;31.00;52.90
52189;DHT22;38162;45.926;13.608;2023-06-26T13:36:22;31.00;52.90
52189;DHT22;38162;45.926;13.608;2023-06-26T13:38:48;31.00;53.00
52189;DHT22;38162;45.926;13.608;2023-06-26T13:41:21;31.10;54.00
52189;DHT22;38162;45.926;13.608;2023-06-26T13:43:47;31.10;53.20
52189;DHT22;38162;45.926;13.608;2023-06-26T13:46:13;31.10;53.20
52189;DHT22;38162;45.926;13.608;2023-06-26T13:48:38;31.20;52.40
52189;DHT22;38162;45.926;13.608;2023-06-26T13:51:04;31.20;52.40
52189;DHT22;38162;45.926;13.608;2023-06-26T13:53:30;31.20;52.30
52189;DHT22;38162;45.926;13.608;2023-06-26T13:55:55;31.20;52.40
52189;DHT22;38162;45.926;13.608;2023-06-26T13:58:21;31.20;52.30
52189;DHT22;38162;45.926;13.608;2023-06-26T14:00:48;31.20;51.80
52189;DHT22;38162;45.926;13.608;2023-06-26T14:03:14;31.20;51.40
52189;DHT22;38162;45.926;13.608;2023-06-26T14:05:40;31.20;51.60
52189;DHT22;38162;45.926;13.608;2023-06-26T14:08:08;31.20;52.30
52189;DHT22;38162;45.926;13.608;2023-06-26T14:10:34;31.30;52.30
52189;DHT22;38162;45.926;13.608;2023-06-26T14:13:00;31.20;52.50
52189;DHT22;38162;45.926;13.608;2023-06-26T14:15:26;31.20;52.10
52189;DHT22;38162;45.926;13.608;2023-06-26T14:17:52;31.20;52.00
52189;DHT22;38162;45.926;13.608;2023-06-26T14:20:18;31.30;52.40
52189;DHT22;38162;45.926;13.608;2023-06-26T14:22:48;31.20;52.00
52189;DHT22;38162;45.926;13.608;2023-06-26T14:25:14;31.30;51.90
52189;DHT22;38162;45.926;13.608;2023-06-26T14:27:40;31.30;52.30
52189;DHT22;38162;45.926;13.608;2023-06-26T14:30:07;31.30;52.70
52189;DHT22;38162;45.926;13.608;2023-06-26T14:32:33;31.30;53.20
52189;DHT22;38162;45.926;13.608;2023-06-26T14:34:59;31.30;52.20
52189;DHT22;38162;45.926;13.608;2023-06-26T14:37:26;31.30;51.80
52189;DHT22;38162;45.926;13.608;2023-06-26T14:39:52;31.30;51.60
52189;DHT22;38162;45.926;13.608;2023-06-26T14:42:18;31.30;51.60
52189;DHT22;38162;45.926;13.608;2023-06-26T14:44:44;31.30;51.90
52189;DHT22;38162;45.926;13.608;2023-06-26T14:47:13;31.30;52.20
52189;DHT22;38162;45.926;13.608;2023-06-26T14:49:39;31.30;51.90
52189;DHT22;38162;45.926;13.608;2023-06-26T14:52:05;31.30;52.10
52189;DHT22;38162;45.926;13.608;2023-06-26T14:54:31;31.30;52.40
52189;DHT22;38162;45.926;13.608;2023-06-26T14:56:58;31.40;52.50
52189;DHT22;38162;45.926;13.608;2023-06-26T14:59:23;31.40;52.40
52189;DHT22;38162;45.926;13.608;2023-06-26T15:01:49;31.40;52.80
52189;DHT22;38162;45.926;13.608;2023-06-26T15:04:15;31.40;53.10
52189;DHT22;38162;45.926;13.608;2023-06-26T15:06:41;31.30;53.10
52189;DHT22;38162;45.926;13.608;2023-06-26T15:09:06;31.40;51.80
52189;DHT22;38162;45.926;13.608;2023-06-26T15:11:34;31.40;51.70
52189;DHT22;38162;45.926;13.608;2023-06-26T15:14:01;31.30;52.10
52189;DHT22;38162;45.926;13.608;2023-06-26T15:16:27;31.40;52.30
52189;DHT22;38162;45.926;13.608;2023-06-26T15:18:52;31.30;52.60
52189;DHT22;38162;45.926;13.608;2023-06-26T15:21:18;31.30;53.10
52189;DHT22;38162;45.926;13.608;2023-06-26T15:23:45;31.30;53.50
52189;DHT22;38162;45.926;13.608;2023-06-26T15:26:11;31.30;53.40
52189;DHT22;38162;45.926;13.608;2023-06-26T15:28:37;31.30;53.20
52189;DHT22;38162;45.926;13.608;2023-06-26T15:31:02;31.30;53.40
52189;DHT22;38162;45.926;13.608;2023-06-26T15:33:28;31.30;52.90